sensor_id;sensor_type;location;lat;lon;timestamp;temperature;humidity
33717;DHT22;20046;50.746;7.072;2023-02-18T00:01:17;11.40;99.90
33717;DHT22;20046;50.746;7.072;2023-02-18T00:03:43;11.40;99.90
33717;DHT22;20046;50.746;7.072;2023-02-18T00:06:19;11.40;99.90
33717;DHT22;20046;50.746;7.072;2023-02-18T00:08:46;11.40;99.90
33717;DHT22;20046;50.746;7.072;2023-02-18T00:11:12;11.40;99.90
33717;DHT22;20046;50.746;7.072;2023-02-18T00:13:38;11.40;99.90
33717;DHT22;20046;50.746;7.072;2023-02-18T00:16:09;11.40;99.90
33717;DHT22;20046;50.746;7.072;2023-02-18T00:18:36;11.40;99.90
33717;DHT22;20046;50.746;7.072;2023-02-18T00:21:06;11.30;99.90
33717;DHT22;20046;50.746;7.072;2023-02-18T00:23:32;11.30;99.90
33717;DHT22;20046;50.746;7.072;2023-02-18T00:28:28;11.30;99.90
33717;DHT22;20046;50.746;7.072;2023-02-18T00:30:54;11.30;99.90
33717;DHT22;20046;50.746;7.072;2023-02-18T00:33:20;11.30;99.90
33717;DHT22;20046;50.746;7.072;2023-02-18T00:35:45;11.30;99.90
33717;DHT22;20046;50.746;7.072;2023-02-18T00:38:11;11.30;99.90
33717;DHT22;20046;50.746;7.072;2023-02-18T00:40:37;11.30;99.90
33717;DHT22;20046;50.746;7.072;2023-02-18T00:43:03;11.30;99.90
33717;DHT22;20046;50.746;7.072;2023-02-18T00:45:29;11.30;99.90
33717;DHT22;20046;50.746;7.072;2023-02-18T00:47:54;11.20;99.90
33717;DHT22;20046;50.746;7.072;2023-02-18T00:50:20;11.20;99.90
33717;DHT22;20046;50.746;7.072;2023-02-18T00:52:46;11.20;99.90
33717;DHT22;20046;50.746;7.072;2023-02-18T00:55:12;11.20;99.90
33717;DHT22;20046;50.746;7.072;2023-02-18T00:57:37;11.20;99.90
33717;DHT22;20046;50.746;7.072;2023-02-18T01:00:07;11.20;99.90
33717;DHT22;20046;50.746;7.072;2023-02-18T01:02:33;11.20;99.90
33717;DHT22;20046;50.746;7.072;2023-02-18T01:04:59;11.20;99.90
33717;DHT22;20046;50.746;7.072;2023-02-18T01:07:24;11.30;99.90
33717;DHT22;20046;50.746;7.072;2023-02-18T01:09:50;11.20;99.90
33717;DHT22;20046;50.746;7.072;2023-02-18T01:12:16;11.30;99.90
33717;DHT22;20046;50.746;7.072;2023-02-18T01:14:41;11.30;99.90
33717;DHT22;20046;50.746;7.072;2023-02-18T01:17:07;11.40;99.90
33717;DHT22;20046;50.746;7.072;2023-02-18T01:19:33;11.40;99.90
33717;DHT22;20046;50.746;7.072;2023-02-18T01:21:59;11.40;99.90
33717;DHT22;20046;50.746;7.072;2023-02-18T01:24:24;11.40;99.90
33717;DHT22;20046;50.746;7.072;2023-02-18T01:26:50;11.40;99.90
33717;DHT22;20046;50.746;7.072;2023-02-18T01:29:15;11.40;99.90
33717;DHT22;20046;50.746;7.072;2023-02-18T01:31:41;11.40;99.90
33717;DHT22;20046;50.746;7.072;2023-02-18T01:34:07;11.40;99.90
33717;DHT22;20046;50.746;7.072;2023-02-18T01:36:35;11.40;99.90
33717;DHT22;20046;50.746;7.072;2023-02-18T01:39:01;11.40;99.90
33717;DHT22;20046;50.746;7.072;2023-02-18T01:41:26;11.40;99.90
33717;DHT22;20046;50.746;7.072;2023-02-18T01:46:39;11.40;99.90
33717;DHT22;20046;50.746;7.072;2023-02-18T01:49:06;11.40;99.90
33717;DHT22;20046;50.746;7.072;2023-02-18T01:51:36;11.30;99.90
33717;DHT22;20046;50.746;7.072;2023-02-18T01:57:06;11.30;99.90
33717;DHT22;20046;50.746;7.072;2023-02-18T01:59:38;11.20;99.90
33717;DHT22;20046;50.746;7.072;2023-02-18T02:02:11;11.20;99.90
33717;DHT22;20046;50.746;7.072;2023-02-18T02:04:38;11.20;99.90
33717;DHT22;20046;50.746;7.072;2023-02-18T02:07:09;11.20;99.90
33717;DHT22;20046;50.746;7.072;2023-02-18T02:09:37;11.10;99.90
33717;DHT22;20046;50.746;7.072;2023-02-18T02:29:04;11.00;99.90
33717;DHT22;20046;50.746;7.072;2023-02-18T02:34:44;11.00;99.90
33717;DHT22;20046;50.746;7.072;2023-02-18T02:37:45;11.00;99.90
33717;DHT22;20046;50.746;7.072;2023-02-18T02:46:34;11.00;99.90
33717;DHT22;20046;50.746;7.072;2023-02-18T02:49:42;11.00;99.90
33717;DHT22;20046;50.746;7.072;2023-02-18T02:52:14;11.00;99.90
33717;DHT22;20046;50.746;7.072;2023-02-18T02:54:42;11.00;99.90
33717;DHT22;20046;50.746;7.072;2023-02-18T02:59:47;11.00;99.90
33717;DHT22;20046;50.746;7.072;2023-02-18T03:11:11;11.00;99.90
33717;DHT22;20046;50.746;7.072;2023-02-18T03:13:56;11.00;99.90
33717;DHT22;20046;50.746;7.072;2023-02-18T03:21:47;11.00;99.90
33717;DHT22;20046;50.746;7.072;2023-02-18T03:24:29;11.10;99.90
33717;DHT22;20046;50.746;7.072;2023-02-18T03:27:25;11.10;99.90
33717;DHT22;20046;50.746;7.072;2023-02-18T03:29:56;11.10;99.90
33717;DHT22;20046;50.746;7.072;2023-02-18T03:32:24;11.20;99.90
33717;DHT22;20046;50.746;7.072;2023-02-18T03:35:01;11.20;99.90
33717;DHT22;20046;50.746;7.072;2023-02-18T03:37:30;11.20;99.90
33717;DHT22;20046;50.746;7.072;2023-02-18T03:39:58;11.20;99.90
33717;DHT22;20046;50.746;7.072;2023-02-18T03:42:26;11.30;99.90
33717;DHT22;20046;50.746;7.072;2023-02-18T03:44:52;11.30;99.90
33717;DHT22;20046;50.746;7.072;2023-02-18T03:47:18;11.40;99.90
33717;DHT22;20046;50.746;7.072;2023-02-18T03:49:44;11.40;99.90
33717;DHT22;20046;50.746;7.072;2023-02-18T03:52:09;11.40;99.90
33717;DHT22;20046;50.746;7.072;2023-02-18T03:54:35;11.50;99.90
33717;DHT22;20046;50.746;7.072;2023-02-18T03:57:01;11.50;99.90
33717;DHT22;20046;50.746;7.072;2023-02-18T03:59:27;11.50;99.90
33717;DHT22;20046;50.746;7.072;2023-02-18T04:01:52;11.50;99.90
33717;DHT22;20046;50.746;7.072;2023-02-18T04:04:18;11.50;99.90
33717;DHT22;20046;50.746;7.072;2023-02-18T04:06:43;11.60;99.90
33717;DHT22;20046;50.746;7.072;2023-02-18T04:09:09;11.60;99.90
33717;DHT22;20046;50.746;7.072;2023-02-18T04:11:38;11.60;99.90
33717;DHT22;20046;50.746;7.072;2023-02-18T04:14:04;11.60;99.90
33717;DHT22;20046;50.746;7.072;2023-02-18T04:16:30;11.70;99.90
33717;DHT22;20046;50.746;7.072;2023-02-18T04:18:56;11.70;99.90
33717;DHT22;20046;50.746;7.072;2023-02-18T04:21:21;11.70;99.90
33717;DHT22;20046;50.746;7.072;2023-02-18T04:23:47;11.70;99.90
33717;DHT22;20046;50.746;7.072;2023-02-18T04:26:12;11.70;99.90
33717;DHT22;20046;50.746;7.072;2023-02-18T04:28:38;11.70;99.90
33717;DHT22;20046;50.746;7.072;2023-02-18T04:31:04;11.70;99.90
33717;DHT22;20046;50.746;7.072;2023-02-18T04:33:29;11.70;99.90
33717;DHT22;20046;50.746;7.072;2023-02-18T04:35:55;11.70;99.90
33717;DHT22;20046;50.746;7.072;2023-02-18T04:38:20;11.70;99.90
33717;DHT22;20046;50.746;7.072;2023-02-18T04:40:46;11.70;99.90
33717;DHT22;20046;50.746;7.072;2023-02-18T04:43:12;11.70;99.90
33717;DHT22;20046;50.746;7.072;2023-02-18T04:45:37;11.80;99.90
33717;DHT22;20046;50.746;7.072;2023-02-18T04:48:03;11.70;99.90
33717;DHT22;20046;50.746;7.072;2023-02-18T04:50:29;11.70;99.90
33717;DHT22;20046;50.746;7.072;2023-02-18T04:52:54;11.70;99.90
33717;DHT22;20046;50.746;7.072;2023-02-18T04:55:20;11.70;99.90
33717;DHT22;20046;50.746;7.072;2023-02-18T04:57:46;11.70;99.90
33717;DHT22;20046;50.746;7.072;2023-02-18T05:00:15;11.70;99.90
33717;DHT22;20046;50.746;7.072;2023-02-18T05:02:42;11.70;99.90
33717;DHT22;20046;50.746;7.072;2023-02-18T05:05:07;11.70;99.90
33717;DHT22;20046;50.746;7.072;2023-02-18T05:07:33;11.80;99.90
33717;DHT22;20046;50.746;7.072;2023-02-18T05:09:59;11.80;99.90
33717;DHT22;20046;50.746;7.072;2023-02-18T05:12:24;11.80;99.90
33717;DHT22;20046;50.746;7.072;2023-02-18T05:14:50;11.80;99.90
33717;DHT22;20046;50.746;7.072;2023-02-18T05:17:15;11.80;99.90
33717;DHT22;20046;50.746;7.072;2023-02-18T05:19:41;11.80;99.90
33717;DHT22;20046;50.746;7.072;2023-02-18T05:22:07;11.90;99.90
33717;DHT22;20046;50.746;7.072;2023-02-18T05:24:32;11.90;99.90
33717;DHT22;20046;50.746;7.072;2023-02-18T05:26:58;11.90;99.90
33717;DHT22;20046;50.746;7.072;2023-02-18T05:29:23;11.90;99.90
33717;DHT22;20046;50.746;7.072;2023-02-18T05:31:49;11.90;99.90
33717;DHT22;20046;50.746;7.072;2023-02-18T05:34:15;11.80;99.90
33717;DHT22;20046;50.746;7.072;2023-02-18T05:36:40;11.90;99.90
33717;DHT22;20046;50.746;7.072;2023-02-18T05:39:06;11.80;99.90
33717;DHT22;20046;50.746;7.072;2023-02-18T05:41:31;11.80;99.90
33717;DHT22;20046;50.746;7.072;2023-02-18T05:43:57;11.80;99.90
33717;DHT22;20046;50.746;7.072;2023-02-18T05:46:41;11.70;99.90
33717;DHT22;20046;50.746;7.072;2023-02-18T05:49:07;11.80;99.90
33717;DHT22;20046;50.746;7.072;2023-02-18T05:51:32;11.80;99.90
33717;DHT22;20046;50.746;7.072;2023-02-18T05:53:58;11.80;99.90
33717;DHT22;20046;50.746;7.072;2023-02-18T05:56:24;11.80;99.90
33717;DHT22;20046;50.746;7.072;2023-02-18T05:58:49;11.80;99.90
33717;DHT22;20046;50.746;7.072;2023-02-18T06:01:15;11.80;99.90
33717;DHT22;20046;50.746;7.072;2023-02-18T06:03:40;11.70;99.90
33717;DHT22;20046;50.746;7.072;2023-02-18T06:06:06;11.70;99.90
33717;DHT22;20046;50.746;7.072;2023-02-18T06:08:32;11.70;99.90
33717;DHT22;20046;50.746;7.072;2023-02-18T06:10:58;11.70;99.90
33717;DHT22;20046;50.746;7.072;2023-02-18T06:13:23;11.70;99.90
33717;DHT22;20046;50.746;7.072;2023-02-18T06:15:50;11.70;99.90
33717;DHT22;20046;50.746;7.072;2023-02-18T06:18:16;11.70;99.90
33717;DHT22;20046;50.746;7.072;2023-02-18T06:20:42;11.80;99.90
33717;DHT22;20046;50.746;7.072;2023-02-18T06:23:08;11.80;99.90
33717;DHT22;20046;50.746;7.072;2023-02-18T06:25:33;11.80;99.90
33717;DHT22;20046;50.746;7.072;2023-02-18T06:27:59;11.80;99.90
33717;DHT22;20046;50.746;7.072;2023-02-18T06:30:24;11.80;99.90
33717;DHT22;20046;50.746;7.072;2023-02-18T06:32:50;11.80;99.90
33717;DHT22;20046;50.746;7.072;2023-02-18T06:35:16;11.80;99.90
33717;DHT22;20046;50.746;7.072;2023-02-18T06:37:41;11.70;99.90
33717;DHT22;20046;50.746;7.072;2023-02-18T06:40:07;11.70;99.90
33717;DHT22;20046;50.746;7.072;2023-02-18T06:42:33;11.70;99.90
33717;DHT22;20046;50.746;7.072;2023-02-18T06:44:58;11.60;99.90
33717;DHT22;20046;50.746;7.072;2023-02-18T06:47:24;11.60;99.90
33717;DHT22;20046;50.746;7.072;2023-02-18T06:49:49;11.60;99.90
33717;DHT22;20046;50.746;7.072;2023-02-18T06:52:15;11.70;99.90
33717;DHT22;20046;50.746;7.072;2023-02-18T06:54:41;11.70;99.90
33717;DHT22;20046;50.746;7.072;2023-02-18T06:57:06;11.70;99.90
33717;DHT22;20046;50.746;7.072;2023-02-18T06:59:32;11.70;99.90
33717;DHT22;20046;50.746;7.072;2023-02-18T07:01:57;11.70;99.90
33717;DHT22;20046;50.746;7.072;2023-02-18T07:04:23;11.80;99.90
33717;DHT22;20046;50.746;7.072;2023-02-18T07:06:49;11.70;99.90
33717;DHT22;20046;50.746;7.072;2023-02-18T07:09:14;11.70;99.90
33717;DHT22;20046;50.746;7.072;2023-02-18T07:11:40;11.60;99.90
33717;DHT22;20046;50.746;7.072;2023-02-18T07:14:05;11.70;99.90
33717;DHT22;20046;50.746;7.072;2023-02-18T07:16:31;11.70;99.90
33717;DHT22;20046;50.746;7.072;2023-02-18T07:18:56;11.70;99.90
33717;DHT22;20046;50.746;7.072;2023-02-18T07:21:22;11.70;99.90
33717;DHT22;20046;50.746;7.072;2023-02-18T07:23:48;11.70;99.90
33717;DHT22;20046;50.746;7.072;2023-02-18T07:26:13;11.70;99.90
33717;DHT22;20046;50.746;7.072;2023-02-18T07:28:39;11.70;99.90
33717;DHT22;20046;50.746;7.072;2023-02-18T07:31:06;11.70;99.90
33717;DHT22;20046;50.746;7.072;2023-02-18T07:33:32;11.70;99.90
33717;DHT22;20046;50.746;7.072;2023-02-18T07:35:59;11.70;99.90
33717;DHT22;20046;50.746;7.072;2023-02-18T07:38:25;11.80;99.90
33717;DHT22;20046;50.746;7.072;2023-02-18T07:40:52;11.80;99.90
33717;DHT22;20046;50.746;7.072;2023-02-18T07:43:18;11.80;99.90
33717;DHT22;20046;50.746;7.072;2023-02-18T07:45:44;11.80;99.90
33717;DHT22;20046;50.746;7.072;2023-02-18T07:48:09;11.80;99.90
33717;DHT22;20046;50.746;7.072;2023-02-18T07:50:37;11.80;99.90
33717;DHT22;20046;50.746;7.072;2023-02-18T07:53:04;11.90;99.90
33717;DHT22;20046;50.746;7.072;2023-02-18T07:55:30;11.80;99.90
33717;DHT22;20046;50.746;7.072;2023-02-18T07:58:23;11.80;99.90
33717;DHT22;20046;50.746;7.072;2023-02-18T08:00:49;11.80;99.90
33717;DHT22;20046;50.746;7.072;2023-02-18T08:03:19;11.80;99.90
33717;DHT22;20046;50.746;7.072;2023-02-18T08:05:47;11.90;99.90
33717;DHT22;20046;50.746;7.072;2023-02-18T08:08:15;11.90;99.90
33717;DHT22;20046;50.746;7.072;2023-02-18T08:10:42;11.90;99.90
33717;DHT22;20046;50.746;7.072;2023-02-18T08:13:08;11.90;99.90
33717;DHT22;20046;50.746;7.072;2023-02-18T08:15:34;11.90;99.90
33717;DHT22;20046;50.746;7.072;2023-02-18T08:18:00;11.90;99.90
33717;DHT22;20046;50.746;7.072;2023-02-18T08:20:26;11.90;99.90
33717;DHT22;20046;50.746;7.072;2023-02-18T08:22:51;11.90;99.90
33717;DHT22;20046;50.746;7.072;2023-02-18T08:25:17;11.90;99.90
33717;DHT22;20046;50.746;7.072;2023-02-18T08:27:43;11.90;99.90
33717;DHT22;20046;50.746;7.072;2023-02-18T08:30:09;11.90;99.90
33717;DHT22;20046;50.746;7.072;2023-02-18T08:32:35;11.90;99.90
33717;DHT22;20046;50.746;7.072;2023-02-18T08:35:01;11.90;99.90
33717;DHT22;20046;50.746;7.072;2023-02-18T08:37:27;11.90;99.90
33717;DHT22;20046;50.746;7.072;2023-02-18T08:39:53;11.90;99.90
33717;DHT22;20046;50.746;7.072;2023-02-18T08:42:19;11.80;99.90
33717;DHT22;20046;50.746;7.072;2023-02-18T08:44:44;11.80;99.90
33717;DHT22;20046;50.746;7.072;2023-02-18T08:47:10;11.70;99.90
33717;DHT22;20046;50.746;7.072;2023-02-18T08:49:36;11.60;99.90
33717;DHT22;20046;50.746;7.072;2023-02-18T08:52:03;11.50;99.90
33717;DHT22;20046;50.746;7.072;2023-02-18T08:54:28;11.30;99.90
33717;DHT22;20046;50.746;7.072;2023-02-18T08:56:55;11.20;99.90
33717;DHT22;20046;50.746;7.072;2023-02-18T08:59:22;11.10;99.90
33717;DHT22;20046;50.746;7.072;2023-02-18T09:01:48;11.00;99.90
33717;DHT22;20046;50.746;7.072;2023-02-18T09:04:14;11.00;99.90
33717;DHT22;20046;50.746;7.072;2023-02-18T09:06:39;10.90;99.90
33717;DHT22;20046;50.746;7.072;2023-02-18T09:09:05;10.90;99.90
33717;DHT22;20046;50.746;7.072;2023-02-18T09:11:31;11.00;99.90
33717;DHT22;20046;50.746;7.072;2023-02-18T09:13:56;11.00;99.90
33717;DHT22;20046;50.746;7.072;2023-02-18T09:16:22;11.10;99.90
33717;DHT22;20046;50.746;7.072;2023-02-18T09:18:48;11.10;99.90
33717;DHT22;20046;50.746;7.072;2023-02-18T09:21:16;11.10;99.90
33717;DHT22;20046;50.746;7.072;2023-02-18T09:23:44;11.10;99.90
33717;DHT22;20046;50.746;7.072;2023-02-18T09:26:13;11.10;99.90
33717;DHT22;20046;50.746;7.072;2023-02-18T09:28:39;11.10;99.90
33717;DHT22;20046;50.746;7.072;2023-02-18T09:31:07;11.10;99.90
33717;DHT22;20046;50.746;7.072;2023-02-18T09:33:40;11.10;99.90
33717;DHT22;20046;50.746;7.072;2023-02-18T09:36:06;11.10;99.90
33717;DHT22;20046;50.746;7.072;2023-02-18T09:38:32;11.10;99.90
33717;DHT22;20046;50.746;7.072;2023-02-18T09:41:00;11.10;99.90
33717;DHT22;20046;50.746;7.072;2023-02-18T09:43:36;11.10;99.90
33717;DHT22;20046;50.746;7.072;2023-02-18T09:46:04;11.10;99.90
33717;DHT22;20046;50.746;7.072;2023-02-18T09:48:34;11.20;99.90
33717;DHT22;20046;50.746;7.072;2023-02-18T09:51:00;11.20;99.90
33717;DHT22;20046;50.746;7.072;2023-02-18T09:53:26;11.20;99.90
33717;DHT22;20046;50.746;7.072;2023-02-18T09:55:54;11.20;99.90
33717;DHT22;20046;50.746;7.072;2023-02-18T09:58:27;11.30;99.90
33717;DHT22;20046;50.746;7.072;2023-02-18T10:03:35;11.40;99.90
33717;DHT22;20046;50.746;7.072;2023-02-18T10:06:05;11.50;99.90
33717;DHT22;20046;50.746;7.072;2023-02-18T10:08:41;11.60;99.90
33717;DHT22;20046;50.746;7.072;2023-02-18T10:11:20;11.60;99.90
33717;DHT22;20046;50.746;7.072;2023-02-18T10:13:46;11.60;99.90
33717;DHT22;20046;50.746;7.072;2023-02-18T10:16:17;11.60;99.90
33717;DHT22;20046;50.746;7.072;2023-02-18T10:18:48;11.60;99.90
33717;DHT22;20046;50.746;7.072;2023-02-18T10:21:18;11.60;99.90
33717;DHT22;20046;50.746;7.072;2023-02-18T10:24:04;11.70;99.90
33717;DHT22;20046;50.746;7.072;2023-02-18T10:26:34;11.60;99.90
33717;DHT22;20046;50.746;7.072;2023-02-18T10:29:00;11.70;99.90
33717;DHT22;20046;50.746;7.072;2023-02-18T10:31:35;11.70;99.90
33717;DHT22;20046;50.746;7.072;2023-02-18T10:37:02;11.80;99.90
33717;DHT22;20046;50.746;7.072;2023-02-18T10:47:57;12.00;99.90
33717;DHT22;20046;50.746;7.072;2023-02-18T10:50:42;12.00;99.90
33717;DHT22;20046;50.746;7.072;2023-02-18T10:55:47;12.20;99.90
33717;DHT22;20046;50.746;7.072;2023-02-18T10:58:41;12.20;99.90
33717;DHT22;20046;50.746;7.072;2023-02-18T11:01:14;12.30;99.90
33717;DHT22;20046;50.746;7.072;2023-02-18T11:07:01;12.30;99.90
33717;DHT22;20046;50.746;7.072;2023-02-18T11:09:00;12.30;99.90
33717;DHT22;20046;50.746;7.072;2023-02-18T11:11:32;12.30;99.90
33717;DHT22;20046;50.746;7.072;2023-02-18T11:14:03;12.40;99.90
33717;DHT22;20046;50.746;7.072;2023-02-18T11:16:41;12.30;99.90
33717;DHT22;20046;50.746;7.072;2023-02-18T11:19:39;12.30;99.90
33717;DHT22;20046;50.746;7.072;2023-02-18T11:25:20;12.30;99.90
33717;DHT22;20046;50.746;7.072;2023-02-18T11:27:56;12.30;99.90
33717;DHT22;20046;50.746;7.072;2023-02-18T11:30:33;12.20;99.90
33717;DHT22;20046;50.746;7.072;2023-02-18T11:35:55;11.80;99.90
33717;DHT22;20046;50.746;7.072;2023-02-18T11:38:36;11.70;99.90
33717;DHT22;20046;50.746;7.072;2023-02-18T11:41:15;11.50;99.90
33717;DHT22;20046;50.746;7.072;2023-02-18T11:43:44;11.50;99.90
33717;DHT22;20046;50.746;7.072;2023-02-18T11:48:38;11.50;99.90
33717;DHT22;20046;50.746;7.072;2023-02-18T11:51:04;11.50;99.90
33717;DHT22;20046;50.746;7.072;2023-02-18T11:55:57;11.60;99.90
33717;DHT22;20046;50.746;7.072;2023-02-18T11:58:24;11.60;99.90
33717;DHT22;20046;50.746;7.072;2023-02-18T12:00:53;11.50;99.90
33717;DHT22;20046;50.746;7.072;2023-02-18T12:05:57;11.50;99.90
33717;DHT22;20046;50.746;7.072;2023-02-18T12:08:27;11.40;99.90
33717;DHT22;20046;50.746;7.072;2023-02-18T12:11:09;11.40;99.90
33717;DHT22;20046;50.746;7.072;2023-02-18T12:13:43;11.30;99.90
33717;DHT22;20046;50.746;7.072;2023-02-18T12:22:34;11.20;99.90
33717;DHT22;20046;50.746;7.072;2023-02-18T12:36:22;11.20;99.90
33717;DHT22;20046;50.746;7.072;2023-02-18T12:46:44;11.20;99.90
33717;DHT22;20046;50.746;7.072;2023-02-18T13:00:53;11.40;99.90
33717;DHT22;20046;50.746;7.072;2023-02-18T13:03:36;11.40;99.90
33717;DHT22;20046;50.746;7.072;2023-02-18T13:09:50;11.40;99.90
33717;DHT22;20046;50.746;7.072;2023-02-18T13:12:34;11.40;99.90
33717;DHT22;20046;50.746;7.072;2023-02-18T13:15:50;11.50;99.90
33717;DHT22;20046;50.746;7.072;2023-02-18T13:17:50;11.50;99.90
33717;DHT22;20046;50.746;7.072;2023-02-18T13:20:41;11.50;99.90
33717;DHT22;20046;50.746;7.072;2023-02-18T13:23:15;11.50;99.90
33717;DHT22;20046;50.746;7.072;2023-02-18T13:25:42;11.60;99.90
33717;DHT22;20046;50.746;7.072;2023-02-18T13:28:19;11.60;99.90
33717;DHT22;20046;50.746;7.072;2023-02-18T13:33:30;11.70;99.90
33717;DHT22;20046;50.746;7.072;2023-02-18T13:41:18;12.00;99.90
33717;DHT22;20046;50.746;7.072;2023-02-18T13:43:44;12.00;99.90
33717;DHT22;20046;50.746;7.072;2023-02-18T13:46:17;12.00;99.90
33717;DHT22;20046;50.746;7.072;2023-02-18T13:48:50;12.10;99.90
33717;DHT22;20046;50.746;7.072;2023-02-18T13:51:29;12.20;99.90
33717;DHT22;20046;50.746;7.072;2023-02-18T13:54:25;12.30;99.90
33717;DHT22;20046;50.746;7.072;2023-02-18T13:57:04;12.30;99.90
33717;DHT22;20046;50.746;7.072;2023-02-18T13:59:39;12.40;99.90
33717;DHT22;20046;50.746;7.072;2023-02-18T14:04:51;12.40;99.90
33717;DHT22;20046;50.746;7.072;2023-02-18T14:10:02;12.40;99.90
33717;DHT22;20046;50.746;7.072;2023-02-18T14:12:42;12.40;99.90
33717;DHT22;20046;50.746;7.072;2023-02-18T14:28:39;12.20;99.90
33717;DHT22;20046;50.746;7.072;2023-02-18T14:31:26;12.30;99.90
33717;DHT22;20046;50.746;7.072;2023-02-18T14:34:03;12.30;99.90
33717;DHT22;20046;50.746;7.072;2023-02-18T14:36:45;12.30;99.90
33717;DHT22;20046;50.746;7.072;2023-02-18T14:42:28;12.20;99.90
33717;DHT22;20046;50.746;7.072;2023-02-18T14:50:41;12.00;99.90
33717;DHT22;20046;50.746;7.072;2023-02-18T14:53:16;12.00;99.90
33717;DHT22;20046;50.746;7.072;2023-02-18T14:55:48;11.80;99.90
33717;DHT22;20046;50.746;7.072;2023-02-18T15:00:49;11.70;99.90
33717;DHT22;20046;50.746;7.072;2023-02-18T15:03:17;11.70;99.90
33717;DHT22;20046;50.746;7.072;2023-02-18T15:05:45;11.70;99.90
33717;DHT22;20046;50.746;7.072;2023-02-18T15:08:19;11.70;99.90
33717;DHT22;20046;50.746;7.072;2023-02-18T15:13:22;11.70;99.90
33717;DHT22;20046;50.746;7.072;2023-02-18T15:15:52;11.80;99.90
33717;DHT22;20046;50.746;7.072;2023-02-18T15:18:30;11.80;99.90
33717;DHT22;20046;50.746;7.072;2023-02-18T15:21:03;11.80;99.90
33717;DHT22;20046;50.746;7.072;2023-02-18T15:23:30;11.90;99.90
33717;DHT22;20046;50.746;7.072;2023-02-18T15:25:58;11.90;99.90
33717;DHT22;20046;50.746;7.072;2023-02-18T15:28:30;11.90;99.90
33717;DHT22;20046;50.746;7.072;2023-02-18T15:31:00;11.90;99.90
33717;DHT22;20046;50.746;7.072;2023-02-18T15:33:27;11.90;99.90
33717;DHT22;20046;50.746;7.072;2023-02-18T15:36:04;11.90;99.90
33717;DHT22;20046;50.746;7.072;2023-02-18T15:38:31;11.90;99.90
33717;DHT22;20046;50.746;7.072;2023-02-18T15:40:57;11.90;99.90
33717;DHT22;20046;50.746;7.072;2023-02-18T15:43:24;11.90;99.90
33717;DHT22;20046;50.746;7.072;2023-02-18T15:45:53;11.90;99.90
33717;DHT22;20046;50.746;7.072;2023-02-18T15:50:55;11.90;99.90
33717;DHT22;20046;50.746;7.072;2023-02-18T15:53:22;11.90;99.90
33717;DHT22;20046;50.746;7.072;2023-02-18T15:55:51;11.90;99.90
33717;DHT22;20046;50.746;7.072;2023-02-18T15:58:30;11.90;99.90
33717;DHT22;20046;50.746;7.072;2023-02-18T16:00:57;11.90;99.90
33717;DHT22;20046;50.746;7.072;2023-02-18T16:05:51;11.90;99.90
33717;DHT22;20046;50.746;7.072;2023-02-18T16:08:31;11.90;99.90
33717;DHT22;20046;50.746;7.072;2023-02-18T16:11:03;11.80;99.90
33717;DHT22;20046;50.746;7.072;2023-02-18T16:13:30;11.80;99.90
33717;DHT22;20046;50.746;7.072;2023-02-18T16:15:56;11.70;99.90
33717;DHT22;20046;50.746;7.072;2023-02-18T16:18:38;11.70;99.90
33717;DHT22;20046;50.746;7.072;2023-02-18T16:21:22;11.70;99.90
33717;DHT22;20046;50.746;7.072;2023-02-18T16:23:54;11.70;99.90
33717;DHT22;20046;50.746;7.072;2023-02-18T16:29:11;11.60;99.90
33717;DHT22;20046;50.746;7.072;2023-02-18T16:31:37;11.60;99.90
33717;DHT22;20046;50.746;7.072;2023-02-18T16:34:03;11.60;99.90
33717;DHT22;20046;50.746;7.072;2023-02-18T16:36:30;11.60;99.90
33717;DHT22;20046;50.746;7.072;2023-02-18T16:38:56;11.50;99.90
33717;DHT22;20046;50.746;7.072;2023-02-18T16:41:23;11.50;99.90
33717;DHT22;20046;50.746;7.072;2023-02-18T16:43:49;11.40;99.90
33717;DHT22;20046;50.746;7.072;2023-02-18T16:46:20;11.40;99.90
33717;DHT22;20046;50.746;7.072;2023-02-18T16:48:49;11.30;99.90
33717;DHT22;20046;50.746;7.072;2023-02-18T16:51:31;11.30;99.90
33717;DHT22;20046;50.746;7.072;2023-02-18T16:53:57;11.30;99.90
33717;DHT22;20046;50.746;7.072;2023-02-18T16:56:31;11.30;99.90
33717;DHT22;20046;50.746;7.072;2023-02-18T16:58:57;11.20;99.90
33717;DHT22;20046;50.746;7.072;2023-02-18T17:03:56;11.20;99.90
33717;DHT22;20046;50.746;7.072;2023-02-18T17:06:22;11.10;99.90
33717;DHT22;20046;50.746;7.072;2023-02-18T17:08:48;11.10;99.90
33717;DHT22;20046;50.746;7.072;2023-02-18T17:13:45;11.00;99.90
33717;DHT22;20046;50.746;7.072;2023-02-18T17:16:11;11.00;99.90
33717;DHT22;20046;50.746;7.072;2023-02-18T17:18:37;11.00;99.90
33717;DHT22;20046;50.746;7.072;2023-02-18T17:21:03;11.00;99.90
33717;DHT22;20046;50.746;7.072;2023-02-18T17:23:28;10.90;99.90
33717;DHT22;20046;50.746;7.072;2023-02-18T17:25:54;10.90;99.90
33717;DHT22;20046;50.746;7.072;2023-02-18T17:28:19;10.90;99.90
33717;DHT22;20046;50.746;7.072;2023-02-18T17:30:52;10.80;99.90
33717;DHT22;20046;50.746;7.072;2023-02-18T17:33:20;10.90;99.90
33717;DHT22;20046;50.746;7.072;2023-02-18T17:35:47;10.90;99.90
33717;DHT22;20046;50.746;7.072;2023-02-18T17:38:14;10.90;99.90
33717;DHT22;20046;50.746;7.072;2023-02-18T17:40:40;10.90;99.90
33717;DHT22;20046;50.746;7.072;2023-02-18T17:43:11;10.90;99.90
33717;DHT22;20046;50.746;7.072;2023-02-18T17:45:44;11.00;99.90
33717;DHT22;20046;50.746;7.072;2023-02-18T17:48:12;10.90;99.90
33717;DHT22;20046;50.746;7.072;2023-02-18T17:50:38;10.90;99.90
33717;DHT22;20046;50.746;7.072;2023-02-18T17:53:05;10.90;99.90
33717;DHT22;20046;50.746;7.072;2023-02-18T17:55:33;10.90;99.90
33717;DHT22;20046;50.746;7.072;2023-02-18T17:57:59;10.90;99.90
33717;DHT22;20046;50.746;7.072;2023-02-18T18:00:28;10.90;99.90
33717;DHT22;20046;50.746;7.072;2023-02-18T18:02:54;10.90;99.90
33717;DHT22;20046;50.746;7.072;2023-02-18T18:07:49;10.80;99.90
33717;DHT22;20046;50.746;7.072;2023-02-18T18:10:17;10.90;99.90
33717;DHT22;20046;50.746;7.072;2023-02-18T18:12:43;10.80;99.90
33717;DHT22;20046;50.746;7.072;2023-02-18T18:17:47;10.70;99.90
33717;DHT22;20046;50.746;7.072;2023-02-18T18:20:12;10.70;99.90
33717;DHT22;20046;50.746;7.072;2023-02-18T18:22:38;10.60;99.90
33717;DHT22;20046;50.746;7.072;2023-02-18T18:25:23;10.60;99.90
33717;DHT22;20046;50.746;7.072;2023-02-18T18:27:49;10.60;99.90
33717;DHT22;20046;50.746;7.072;2023-02-18T18:30:18;10.60;99.90
33717;DHT22;20046;50.746;7.072;2023-02-18T18:32:44;10.60;99.90
33717;DHT22;20046;50.746;7.072;2023-02-18T18:35:45;10.60;99.90
33717;DHT22;20046;50.746;7.072;2023-02-18T18:38:12;10.50;99.90
33717;DHT22;20046;50.746;7.072;2023-02-18T18:40:39;10.50;99.90
33717;DHT22;20046;50.746;7.072;2023-02-18T18:43:05;10.50;99.90
33717;DHT22;20046;50.746;7.072;2023-02-18T18:45:35;10.40;99.90